sensor_id;sensor_type;location;lat;lon;timestamp;pressure;altitude;pressure_sealevel;temperature;humidity
22000;BME280;11164;48.818;2.322;2023-05-25T00:02:14;101250.38;;;17.98;30.85
22000;BME280;11164;48.818;2.322;2023-05-25T00:04:40;101272.16;;;17.86;31.14
22000;BME280;11164;48.818;2.322;2023-05-25T00:07:06;101254.84;;;17.43;31.91
22000;BME280;11164;48.818;2.322;2023-05-25T00:09:31;101253.59;;;17.46;32.03
22000;BME280;11164;48.818;2.322;2023-05-25T00:11:57;101247.66;;;17.12;32.40
22000;BME280;11164;48.818;2.322;2023-05-25T00:14:24;101260.38;;;17.00;32.87
22000;BME280;11164;48.818;2.322;2023-05-25T00:16:50;101246.91;;;17.05;32.67
22000;BME280;11164;48.818;2.322;2023-05-25T00:19:15;101252.34;;;17.42;31.94
22000;BME280;11164;48.818;2.322;2023-05-25T00:21:43;101252.13;;;17.62;31.63
22000;BME280;11164;48.818;2.322;2023-05-25T00:24:10;101252.28;;;17.49;31.82
22000;BME280;11164;48.818;2.322;2023-05-25T00:26:35;101246.84;;;17.49;31.82
22000;BME280;11164;48.818;2.322;2023-05-25T00:29:02;101250.00;;;17.45;31.98
22000;BME280;11164;48.818;2.322;2023-05-25T00:31:28;101241.63;;;17.47;31.79
22000;BME280;11164;48.818;2.322;2023-05-25T00:33:54;101248.75;;;17.11;32.39
22000;BME280;11164;48.818;2.322;2023-05-25T00:36:19;101257.09;;;16.91;32.47
22000;BME280;11164;48.818;2.322;2023-05-25T00:38:44;101253.47;;;16.79;32.54
22000;BME280;11164;48.818;2.322;2023-05-25T00:41:11;101257.41;;;17.01;32.66
22000;BME280;11164;48.818;2.322;2023-05-25T00:43:37;101250.91;;;17.21;32.23
22000;BME280;11164;48.818;2.322;2023-05-25T00:46:02;101256.75;;;17.24;31.96
22000;BME280;11164;48.818;2.322;2023-05-25T00:48:27;101260.69;;;17.10;32.39
22000;BME280;11164;48.818;2.322;2023-05-25T00:50:54;101247.66;;;17.12;32.53
22000;BME280;11164;48.818;2.322;2023-05-25T00:53:24;101251.28;;;16.87;32.84
22000;BME280;11164;48.818;2.322;2023-05-25T00:56:05;101257.47;;;16.76;34.62
22000;BME280;11164;48.818;2.322;2023-05-25T00:58:33;101259.81;;;16.91;32.57
22000;BME280;11164;48.818;2.322;2023-05-25T01:01:02;101257.31;;;16.90;32.85
22000;BME280;11164;48.818;2.322;2023-05-25T01:03:30;101260.19;;;16.76;33.00
22000;BME280;11164;48.818;2.322;2023-05-25T01:06:01;101253.13;;;16.68;33.21
22000;BME280;11164;48.818;2.322;2023-05-25T01:08:29;101244.69;;;16.77;32.93
22000;BME280;11164;48.818;2.322;2023-05-25T01:10:58;101255.84;;;16.94;32.57
22000;BME280;11164;48.818;2.322;2023-05-25T01:13:26;101249.38;;;16.69;33.15
22000;BME280;11164;48.818;2.322;2023-05-25T01:15:51;101246.63;;;16.69;33.34
22000;BME280;11164;48.818;2.322;2023-05-25T01:18:17;101249.00;;;16.84;32.92
22000;BME280;11164;48.818;2.322;2023-05-25T01:21:07;101251.13;;;16.57;35.70
22000;BME280;11164;48.818;2.322;2023-05-25T01:24:03;101252.91;;;16.70;35.39
22000;BME280;11164;48.818;2.322;2023-05-25T01:26:36;101255.47;;;16.40;34.06
22000;BME280;11164;48.818;2.322;2023-05-25T01:29:03;101234.94;;;16.12;34.09
22000;BME280;11164;48.818;2.322;2023-05-25T01:31:31;101240.13;;;16.13;34.42
22000;BME280;11164;48.818;2.322;2023-05-25T01:33:59;101253.53;;;16.15;34.25
22000;BME280;11164;48.818;2.322;2023-05-25T01:36:24;101254.00;;;16.37;34.06
22000;BME280;11164;48.818;2.322;2023-05-25T01:38:50;101248.53;;;16.12;34.41
22000;BME280;11164;48.818;2.322;2023-05-25T01:41:15;101256.09;;;16.35;34.13
22000;BME280;11164;48.818;2.322;2023-05-25T01:43:41;101260.91;;;16.40;33.86
22000;BME280;11164;48.818;2.322;2023-05-25T01:52:26;101262.47;;;16.22;36.48
22000;BME280;11164;48.818;2.322;2023-05-25T01:54:57;101261.91;;;16.13;34.66
22000;BME280;11164;48.818;2.322;2023-05-25T01:57:25;101268.34;;;15.87;34.82
22000;BME280;11164;48.818;2.322;2023-05-25T01:59:54;101264.22;;;16.10;34.56
22000;BME280;11164;48.818;2.322;2023-05-25T02:02:24;101263.91;;;15.48;35.85
22000;BME280;11164;48.818;2.322;2023-05-25T02:04:52;101252.28;;;15.72;35.31
22000;BME280;11164;48.818;2.322;2023-05-25T02:07:18;101274.25;;;15.78;35.36
22000;BME280;11164;48.818;2.322;2023-05-25T02:09:43;101268.72;;;15.91;35.01
22000;BME280;11164;48.818;2.322;2023-05-25T02:12:09;101269.84;;;15.77;35.29
22000;BME280;11164;48.818;2.322;2023-05-25T02:14:35;101264.72;;;15.55;35.71
22000;BME280;11164;48.818;2.322;2023-05-25T02:17:00;101265.16;;;15.45;36.04
22000;BME280;11164;48.818;2.322;2023-05-25T02:19:26;101278.09;;;15.56;35.73
22000;BME280;11164;48.818;2.322;2023-05-25T02:21:52;101274.47;;;15.69;35.38
22000;BME280;11164;48.818;2.322;2023-05-25T02:24:17;101270.72;;;15.70;35.46
22000;BME280;11164;48.818;2.322;2023-05-25T02:26:42;101268.69;;;15.52;35.65
22000;BME280;11164;48.818;2.322;2023-05-25T02:29:08;101274.34;;;15.44;35.80
22000;BME280;11164;48.818;2.322;2023-05-25T02:31:33;101276.00;;;15.59;35.54
22000;BME280;11164;48.818;2.322;2023-05-25T02:33:58;101285.13;;;15.71;35.31
22000;BME280;11164;48.818;2.322;2023-05-25T02:36:24;101279.25;;;15.81;35.13
22000;BME280;11164;48.818;2.322;2023-05-25T02:38:52;101283.78;;;15.93;35.06
22000;BME280;11164;48.818;2.322;2023-05-25T02:41:18;101286.78;;;15.79;35.21
22000;BME280;11164;48.818;2.322;2023-05-25T02:43:48;101290.94;;;15.88;35.23
22000;BME280;11164;48.818;2.322;2023-05-25T02:46:13;101293.91;;;15.80;35.18
22000;BME280;11164;48.818;2.322;2023-05-25T02:48:40;101288.88;;;15.77;35.61
22000;BME280;11164;48.818;2.322;2023-05-25T02:51:06;101291.81;;;15.82;35.33
22000;BME280;11164;48.818;2.322;2023-05-25T02:53:31;101293.72;;;15.61;35.69
22000;BME280;11164;48.818;2.322;2023-05-25T02:55:56;101299.28;;;15.34;36.27
22000;BME280;11164;48.818;2.322;2023-05-25T02:58:22;101294.41;;;15.56;35.87
22000;BME280;11164;48.818;2.322;2023-05-25T03:00:48;101290.16;;;15.67;35.65
22000;BME280;11164;48.818;2.322;2023-05-25T03:03:14;101295.22;;;15.57;35.90
22000;BME280;11164;48.818;2.322;2023-05-25T03:05:40;101301.44;;;15.71;35.65
22000;BME280;11164;48.818;2.322;2023-05-25T03:08:05;101299.16;;;15.61;35.95
22000;BME280;11164;48.818;2.322;2023-05-25T03:10:31;101296.84;;;15.65;35.87
22000;BME280;11164;48.818;2.322;2023-05-25T03:12:56;101306.81;;;15.32;36.21
22000;BME280;11164;48.818;2.322;2023-05-25T03:15:21;101299.50;;;15.13;36.65
22000;BME280;11164;48.818;2.322;2023-05-25T03:17:47;101303.28;;;15.12;36.56
22000;BME280;11164;48.818;2.322;2023-05-25T03:20:13;101300.38;;;14.93;36.83
22000;BME280;11164;48.818;2.322;2023-05-25T03:22:40;101309.56;;;15.06;36.47
22000;BME280;11164;48.818;2.322;2023-05-25T03:25:05;101305.81;;;14.87;36.90
22000;BME280;11164;48.818;2.322;2023-05-25T03:27:31;101308.50;;;14.80;36.86
22000;BME280;11164;48.818;2.322;2023-05-25T03:29:56;101320.63;;;14.71;37.20
22000;BME280;11164;48.818;2.322;2023-05-25T03:32:21;101315.00;;;14.72;36.95
22000;BME280;11164;48.818;2.322;2023-05-25T03:34:48;101320.88;;;14.83;36.77
22000;BME280;11164;48.818;2.322;2023-05-25T03:37:13;101320.00;;;14.69;37.06
22000;BME280;11164;48.818;2.322;2023-05-25T03:39:39;101322.28;;;14.65;37.25
22000;BME280;11164;48.818;2.322;2023-05-25T03:42:04;101332.94;;;14.80;36.90
22000;BME280;11164;48.818;2.322;2023-05-25T03:44:30;101333.38;;;14.77;37.06
22000;BME280;11164;48.818;2.322;2023-05-25T03:46:56;101329.19;;;14.61;37.07
22000;BME280;11164;48.818;2.322;2023-05-25T03:49:21;101331.25;;;14.59;37.25
22000;BME280;11164;48.818;2.322;2023-05-25T03:51:46;101339.63;;;14.71;37.19
22000;BME280;11164;48.818;2.322;2023-05-25T03:54:12;101333.41;;;14.84;36.81
22000;BME280;11164;48.818;2.322;2023-05-25T03:56:37;101335.44;;;14.61;37.21
22000;BME280;11164;48.818;2.322;2023-05-25T03:59:03;101334.16;;;14.31;37.90
22000;BME280;11164;48.818;2.322;2023-05-25T04:01:28;101343.16;;;14.58;37.12
22000;BME280;11164;48.818;2.322;2023-05-25T04:03:55;101342.53;;;14.62;37.31
22000;BME280;11164;48.818;2.322;2023-05-25T04:06:21;101329.34;;;14.39;37.53
22000;BME280;11164;48.818;2.322;2023-05-25T04:08:49;101333.28;;;14.17;37.99
22000;BME280;11164;48.818;2.322;2023-05-25T04:11:15;101330.34;;;14.12;38.20
22000;BME280;11164;48.818;2.322;2023-05-25T04:13:41;101333.75;;;14.34;37.79
22000;BME280;11164;48.818;2.322;2023-05-25T04:16:06;101329.56;;;14.44;37.57
22000;BME280;11164;48.818;2.322;2023-05-25T04:18:31;101335.84;;;14.58;37.45
22000;BME280;11164;48.818;2.322;2023-05-25T04:20:57;101337.53;;;14.59;37.32
22000;BME280;11164;48.818;2.322;2023-05-25T04:23:23;101338.50;;;14.18;38.03
22000;BME280;11164;48.818;2.322;2023-05-25T04:25:48;101330.41;;;14.45;37.72
22000;BME280;11164;48.818;2.322;2023-05-25T04:28:15;101333.75;;;14.54;37.31
22000;BME280;11164;48.818;2.322;2023-05-25T04:30:41;101338.06;;;14.15;38.34
22000;BME280;11164;48.818;2.322;2023-05-25T04:33:08;101337.03;;;14.22;38.19
22000;BME280;11164;48.818;2.322;2023-05-25T04:35:35;101323.63;;;13.94;38.64
22000;BME280;11164;48.818;2.322;2023-05-25T04:38:01;101341.00;;;14.13;38.36
22000;BME280;11164;48.818;2.322;2023-05-25T04:40:27;101336.81;;;14.11;38.38
22000;BME280;11164;48.818;2.322;2023-05-25T04:42:52;101340.09;;;13.99;38.60
22000;BME280;11164;48.818;2.322;2023-05-25T04:45:18;101344.72;;;14.05;38.73
22000;BME280;11164;48.818;2.322;2023-05-25T04:47:45;101343.47;;;14.08;38.58
22000;BME280;11164;48.818;2.322;2023-05-25T04:50:11;101349.50;;;14.03;38.67
22000;BME280;11164;48.818;2.322;2023-05-25T04:52:37;101350.19;;;14.25;38.40
22000;BME280;11164;48.818;2.322;2023-05-25T04:55:02;101352.63;;;14.82;37.31
22000;BME280;11164;48.818;2.322;2023-05-25T04:57:28;101362.41;;;15.16;36.76
22000;BME280;11164;48.818;2.322;2023-05-25T04:59:56;101367.41;;;15.13;36.91
22000;BME280;11164;48.818;2.322;2023-05-25T05:02:21;101356.34;;;15.34;36.69
22000;BME280;11164;48.818;2.322;2023-05-25T05:04:46;101356.06;;;15.56;36.30
22000;BME280;11164;48.818;2.322;2023-05-25T05:07:12;101355.66;;;15.52;36.40
22000;BME280;11164;48.818;2.322;2023-05-25T05:09:38;101348.59;;;15.38;36.87
22000;BME280;11164;48.818;2.322;2023-05-25T05:12:03;101354.44;;;15.35;36.94
22000;BME280;11164;48.818;2.322;2023-05-25T05:14:29;101363.22;;;15.37;36.90
22000;BME280;11164;48.818;2.322;2023-05-25T05:16:54;101363.19;;;15.44;36.95
22000;BME280;11164;48.818;2.322;2023-05-25T05:19:19;101356.31;;;15.48;36.87
22000;BME280;11164;48.818;2.322;2023-05-25T05:21:45;101379.97;;;15.34;37.23
22000;BME280;11164;48.818;2.322;2023-05-25T05:24:10;101372.97;;;15.65;36.71
22000;BME280;11164;48.818;2.322;2023-05-25T05:26:38;101376.53;;;15.65;36.73
22000;BME280;11164;48.818;2.322;2023-05-25T05:29:03;101377.22;;;15.41;37.56
22000;BME280;11164;48.818;2.322;2023-05-25T05:31:30;101389.56;;;15.23;37.42
22000;BME280;11164;48.818;2.322;2023-05-25T05:33:56;101392.28;;;15.16;37.52
22000;BME280;11164;48.818;2.322;2023-05-25T05:36:21;101382.41;;;15.75;36.66
22000;BME280;11164;48.818;2.322;2023-05-25T05:38:47;101384.84;;;15.90;36.30
22000;BME280;11164;48.818;2.322;2023-05-25T05:41:12;101377.47;;;16.43;35.42
22000;BME280;11164;48.818;2.322;2023-05-25T05:43:41;101387.00;;;16.59;35.36
22000;BME280;11164;48.818;2.322;2023-05-25T05:46:09;101387.81;;;16.27;35.91
22000;BME280;11164;48.818;2.322;2023-05-25T05:48:37;101397.38;;;15.98;36.56
22000;BME280;11164;48.818;2.322;2023-05-25T05:51:05;101393.06;;;16.22;36.38
22000;BME280;11164;48.818;2.322;2023-05-25T05:53:31;101383.31;;;16.08;36.16
22000;BME280;11164;48.818;2.322;2023-05-25T05:55:59;101398.53;;;16.61;35.46
22000;BME280;11164;48.818;2.322;2023-05-25T05:58:25;101391.75;;;16.38;35.60
22000;BME280;11164;48.818;2.322;2023-05-25T06:00:53;101393.97;;;16.09;36.25
22000;BME280;11164;48.818;2.322;2023-05-25T06:03:21;101402.19;;;16.41;35.82
22000;BME280;11164;48.818;2.322;2023-05-25T06:05:47;101414.91;;;16.86;35.15
22000;BME280;11164;48.818;2.322;2023-05-25T06:08:12;101416.00;;;16.85;35.22
22000;BME280;11164;48.818;2.322;2023-05-25T06:10:38;101401.47;;;16.66;35.57
22000;BME280;11164;48.818;2.322;2023-05-25T06:13:03;101403.41;;;17.09;35.10
22000;BME280;11164;48.818;2.322;2023-05-25T06:15:29;101387.88;;;16.21;36.12
22000;BME280;11164;48.818;2.322;2023-05-25T06:17:55;101407.94;;;16.65;35.39
22000;BME280;11164;48.818;2.322;2023-05-25T06:20:20;101410.44;;;16.28;35.85
22000;BME280;11164;48.818;2.322;2023-05-25T06:22:45;101406.25;;;16.64;35.26
22000;BME280;11164;48.818;2.322;2023-05-25T06:25:12;101410.66;;;16.58;35.25
22000;BME280;11164;48.818;2.322;2023-05-25T06:27:38;101417.72;;;16.34;35.83
22000;BME280;11164;48.818;2.322;2023-05-25T06:30:04;101410.47;;;16.21;35.85
22000;BME280;11164;48.818;2.322;2023-05-25T06:32:29;101427.13;;;15.93;36.35
22000;BME280;11164;48.818;2.322;2023-05-25T06:34:55;101426.00;;;16.07;35.87
22000;BME280;11164;48.818;2.322;2023-05-25T06:37:20;101430.34;;;16.22;35.60
22000;BME280;11164;48.818;2.322;2023-05-25T06:39:45;101430.53;;;16.27;35.74
22000;BME280;11164;48.818;2.322;2023-05-25T06:42:11;101410.53;;;17.10;34.29
22000;BME280;11164;48.818;2.322;2023-05-25T06:44:36;101411.28;;;16.67;34.80
22000;BME280;11164;48.818;2.322;2023-05-25T06:47:02;101419.00;;;16.70;34.87
22000;BME280;11164;48.818;2.322;2023-05-25T06:49:28;101410.81;;;16.77;34.89
22000;BME280;11164;48.818;2.322;2023-05-25T06:51:53;101418.47;;;16.86;34.69
22000;BME280;11164;48.818;2.322;2023-05-25T06:54:18;101413.38;;;16.97;34.42
22000;BME280;11164;48.818;2.322;2023-05-25T06:56:44;101416.16;;;16.90;34.80
22000;BME280;11164;48.818;2.322;2023-05-25T06:59:10;101409.16;;;16.69;35.00
22000;BME280;11164;48.818;2.322;2023-05-25T07:01:35;101413.91;;;16.80;34.62
22000;BME280;11164;48.818;2.322;2023-05-25T07:04:01;101414.53;;;17.33;33.84
22000;BME280;11164;48.818;2.322;2023-05-25T07:06:26;101408.38;;;17.44;33.94
22000;BME280;11164;48.818;2.322;2023-05-25T07:08:52;101418.53;;;17.05;34.18
22000;BME280;11164;48.818;2.322;2023-05-25T07:11:19;101421.66;;;17.09;34.17
22000;BME280;11164;48.818;2.322;2023-05-25T07:13:45;101426.72;;;17.55;33.52
22000;BME280;11164;48.818;2.322;2023-05-25T07:16:10;101418.78;;;17.29;33.73
22000;BME280;11164;48.818;2.322;2023-05-25T07:18:38;101426.16;;;16.96;34.24
22000;BME280;11164;48.818;2.322;2023-05-25T07:21:05;101414.47;;;16.89;34.49
22000;BME280;11164;48.818;2.322;2023-05-25T07:23:30;101425.34;;;17.46;33.77
22000;BME280;11164;48.818;2.322;2023-05-25T07:25:56;101432.25;;;17.23;33.71
22000;BME280;11164;48.818;2.322;2023-05-25T07:28:21;101429.31;;;17.43;33.60
22000;BME280;11164;48.818;2.322;2023-05-25T07:30:47;101423.09;;;17.80;33.17
22000;BME280;11164;48.818;2.322;2023-05-25T07:33:12;101417.53;;;18.24;32.37
22000;BME280;11164;48.818;2.322;2023-05-25T07:35:37;101407.31;;;18.19;32.23
22000;BME280;11164;48.818;2.322;2023-05-25T07:38:03;101416.75;;;18.53;32.04
22000;BME280;11164;48.818;2.322;2023-05-25T07:40:31;101428.25;;;18.07;32.60
22000;BME280;11164;48.818;2.322;2023-05-25T07:42:56;101422.06;;;17.99;32.59
22000;BME280;11164;48.818;2.322;2023-05-25T07:45:22;101422.38;;;17.22;33.65
22000;BME280;11164;48.818;2.322;2023-05-25T07:47:47;101406.06;;;17.41;33.00
22000;BME280;11164;48.818;2.322;2023-05-25T07:50:13;101422.09;;;17.56;32.67
22000;BME280;11164;48.818;2.322;2023-05-25T07:52:39;101410.13;;;18.12;31.90
22000;BME280;11164;48.818;2.322;2023-05-25T07:55:05;101407.81;;;18.46;31.45
22000;BME280;11164;48.818;2.322;2023-05-25T07:57:31;101411.41;;;18.10;31.68
22000;BME280;11164;48.818;2.322;2023-05-25T07:59:57;101422.38;;;18.22;31.49
22000;BME280;11164;48.818;2.322;2023-05-25T08:02:22;101416.81;;;17.98;32.10
22000;BME280;11164;48.818;2.322;2023-05-25T08:04:47;101439.19;;;17.44;32.31
22000;BME280;11164;48.818;2.322;2023-05-25T08:07:13;101411.34;;;17.61;32.27
22000;BME280;11164;48.818;2.322;2023-05-25T08:09:38;101429.72;;;18.28;31.43
22000;BME280;11164;48.818;2.322;2023-05-25T08:12:04;101421.94;;;18.43;31.29
22000;BME280;11164;48.818;2.322;2023-05-25T08:14:29;101432.19;;;17.92;31.79
22000;BME280;11164;48.818;2.322;2023-05-25T08:16:57;101422.97;;;18.12;31.56
22000;BME280;11164;48.818;2.322;2023-05-25T08:19:22;101418.63;;;18.04;31.73
22000;BME280;11164;48.818;2.322;2023-05-25T08:21:48;101427.88;;;18.03;31.54
22000;BME280;11164;48.818;2.322;2023-05-25T08:24:13;101416.34;;;18.38;31.08
22000;BME280;11164;48.818;2.322;2023-05-25T08:26:38;101418.91;;;19.05;30.37
22000;BME280;11164;48.818;2.322;2023-05-25T08:29:05;101412.41;;;19.18;29.97
22000;BME280;11164;48.818;2.322;2023-05-25T08:31:31;101426.38;;;18.56;30.96
22000;BME280;11164;48.818;2.322;2023-05-25T08:33:57;101425.03;;;18.47;30.90
22000;BME280;11164;48.818;2.322;2023-05-25T08:36:24;101413.53;;;18.87;29.80
22000;BME280;11164;48.818;2.322;2023-05-25T08:38:50;101421.44;;;19.42;29.44
22000;BME280;11164;48.818;2.322;2023-05-25T08:41:16;101402.13;;;19.96;28.59
22000;BME280;11164;48.818;2.322;2023-05-25T08:43:41;101421.22;;;19.32;29.50
22000;BME280;11164;48.818;2.322;2023-05-25T08:46:08;101421.44;;;19.42;29.45
22000;BME280;11164;48.818;2.322;2023-05-25T08:48:35;101428.00;;;18.87;29.90
22000;BME280;11164;48.818;2.322;2023-05-25T08:51:07;101430.94;;;19.16;28.50
22000;BME280;11164;48.818;2.322;2023-05-25T08:53:37;101432.88;;;19.63;28.38
22000;BME280;11164;48.818;2.322;2023-05-25T08:56:13;101434.63;;;19.93;27.44
22000;BME280;11164;48.818;2.322;2023-05-25T08:58:57;101423.88;;;20.15;25.44
22000;BME280;11164;48.818;2.322;2023-05-25T09:01:27;101409.53;;;20.53;26.77
22000;BME280;11164;48.818;2.322;2023-05-25T09:03:58;101427.94;;;20.70;27.06
22000;BME280;11164;48.818;2.322;2023-05-25T09:06:24;101434.81;;;20.15;27.89
22000;BME280;11164;48.818;2.322;2023-05-25T09:08:51;101439.56;;;20.19;27.77
22000;BME280;11164;48.818;2.322;2023-05-25T09:11:18;101420.75;;;20.52;27.20
22000;BME280;11164;48.818;2.322;2023-05-25T09:13:43;101426.53;;;19.98;27.69
22000;BME280;11164;48.818;2.322;2023-05-25T09:16:09;101429.91;;;19.53;28.32
22000;BME280;11164;48.818;2.322;2023-05-25T09:18:35;101422.63;;;19.58;28.14
22000;BME280;11164;48.818;2.322;2023-05-25T09:21:00;101427.69;;;20.02;27.50
22000;BME280;11164;48.818;2.322;2023-05-25T09:23:27;101410.47;;;19.78;27.45
22000;BME280;11164;48.818;2.322;2023-05-25T09:25:52;101419.47;;;18.96;28.69
22000;BME280;11164;48.818;2.322;2023-05-25T09:28:18;101417.03;;;19.53;27.54
22000;BME280;11164;48.818;2.322;2023-05-25T09:30:44;101417.78;;;19.37;27.71
22000;BME280;11164;48.818;2.322;2023-05-25T09:33:10;101423.81;;;19.27;27.58
22000;BME280;11164;48.818;2.322;2023-05-25T09:35:36;101411.91;;;19.33;27.39
22000;BME280;11164;48.818;2.322;2023-05-25T09:38:01;101414.16;;;19.83;26.79
22000;BME280;11164;48.818;2.322;2023-05-25T09:40:27;101409.53;;;19.72;26.68
22000;BME280;11164;48.818;2.322;2023-05-25T09:42:52;101408.94;;;19.58;26.87
22000;BME280;11164;48.818;2.322;2023-05-25T09:45:17;101412.66;;;19.17;27.33
22000;BME280;11164;48.818;2.322;2023-05-25T09:47:42;101414.91;;;19.43;27.02
22000;BME280;11164;48.818;2.322;2023-05-25T09:50:10;101388.59;;;19.90;26.18
22000;BME280;11164;48.818;2.322;2023-05-25T09:52:35;101419.22;;;20.44;25.65
22000;BME280;11164;48.818;2.322;2023-05-25T09:55:01;101408.63;;;21.10;25.06
22000;BME280;11164;48.818;2.322;2023-05-25T09:57:27;101415.56;;;20.67;25.60
22000;BME280;11164;48.818;2.322;2023-05-25T09:59:52;101413.06;;;20.08;25.98
22000;BME280;11164;48.818;2.322;2023-05-25T10:02:18;101419.19;;;20.27;25.73
22000;BME280;11164;48.818;2.322;2023-05-25T10:04:43;101418.25;;;20.50;25.59
22000;BME280;11164;48.818;2.322;2023-05-25T10:07:09;101405.38;;;20.79;25.13
22000;BME280;11164;48.818;2.322;2023-05-25T10:09:38;101422.38;;;20.65;25.02
22000;BME280;11164;48.818;2.322;2023-05-25T10:12:06;101429.38;;;20.32;25.75
22000;BME280;11164;48.818;2.322;2023-05-25T10:14:34;101425.91;;;20.94;25.14
22000;BME280;11164;48.818;2.322;2023-05-25T10:17:03;101437.09;;;20.92;24.76
22000;BME280;11164;48.818;2.322;2023-05-25T10:19:35;101419.28;;;19.92;25.53
22000;BME280;11164;48.818;2.322;2023-05-25T10:24:56;101421.84;;;21.30;22.37
22000;BME280;11164;48.818;2.322;2023-05-25T10:27:27;101423.09;;;21.06;24.27
22000;BME280;11164;48.818;2.322;2023-05-25T10:29:55;101425.59;;;21.24;24.24
22000;BME280;11164;48.818;2.322;2023-05-25T10:32:21;101410.09;;;20.67;24.96
22000;BME280;11164;48.818;2.322;2023-05-25T10:34:47;101429.31;;;21.01;24.88
22000;BME280;11164;48.818;2.322;2023-05-25T10:37:15;101430.50;;;21.78;24.15
22000;BME280;11164;48.818;2.322;2023-05-25T10:39:41;101420.28;;;21.73;24.20
22000;BME280;11164;48.818;2.322;2023-05-25T10:42:08;101420.91;;;21.98;24.08
22000;BME280;11164;48.818;2.322;2023-05-25T10:44:33;101424.75;;;21.80;24.04
22000;BME280;11164;48.818;2.322;2023-05-25T10:46:59;101427.06;;;21.49;24.59
22000;BME280;11164;48.818;2.322;2023-05-25T10:49:29;101418.34;;;21.18;24.60
22000;BME280;11164;48.818;2.322;2023-05-25T10:51:59;101429.28;;;20.84;25.38
22000;BME280;11164;48.818;2.322;2023-05-25T10:54:32;101435.56;;;21.30;24.50
22000;BME280;11164;48.818;2.322;2023-05-25T10:57:18;101433.81;;;21.80;22.63
22000;BME280;11164;48.818;2.322;2023-05-25T10:59:48;101432.91;;;21.35;24.40
22000;BME280;11164;48.818;2.322;2023-05-25T11:02:15;101424.22;;;20.76;25.38
22000;BME280;11164;48.818;2.322;2023-05-25T11:04:40;101422.69;;;21.14;24.78
22000;BME280;11164;48.818;2.322;2023-05-25T11:07:07;101420.63;;;21.60;24.29
22000;BME280;11164;48.818;2.322;2023-05-25T11:09:40;101419.50;;;21.05;24.81
22000;BME280;11164;48.818;2.322;2023-05-25T11:12:17;101422.75;;;21.19;23.59
22000;BME280;11164;48.818;2.322;2023-05-25T11:15:07;101422.38;;;20.65;24.19
22000;BME280;11164;48.818;2.322;2023-05-25T11:17:43;101425.44;;;20.68;23.83
22000;BME280;11164;48.818;2.322;2023-05-25T11:20:20;101420.09;;;20.90;23.75
22000;BME280;11164;48.818;2.322;2023-05-25T11:22:45;101422.69;;;21.14;24.50
22000;BME280;11164;48.818;2.322;2023-05-25T11:25:36;101427.72;;;21.56;22.38
22000;BME280;11164;48.818;2.322;2023-05-25T11:28:04;101425.28;;;21.60;23.83
22000;BME280;11164;48.818;2.322;2023-05-25T11:30:30;101416.69;;;21.34;24.48
22000;BME280;11164;48.818;2.322;2023-05-25T11:32:56;101409.97;;;21.64;23.86
22000;BME280;11164;48.818;2.322;2023-05-25T11:35:24;101410.84;;;21.13;24.17
22000;BME280;11164;48.818;2.322;2023-05-25T11:37:50;101405.63;;;20.95;24.69
22000;BME280;11164;48.818;2.322;2023-05-25T11:40:21;101412.03;;;21.17;24.02
22000;BME280;11164;48.818;2.322;2023-05-25T11:42:47;101404.63;;;21.52;24.03
22000;BME280;11164;48.818;2.322;2023-05-25T11:45:13;101382.03;;;21.67;23.92
22000;BME280;11164;48.818;2.322;2023-05-25T11:47:40;101399.97;;;21.52;24.04
22000;BME280;11164;48.818;2.322;2023-05-25T11:50:06;101396.84;;;21.88;23.83
22000;BME280;11164;48.818;2.322;2023-05-25T11:52:31;101408.41;;;21.90;23.77
22000;BME280;11164;48.818;2.322;2023-05-25T11:54:57;101391.56;;;22.03;23.17
22000;BME280;11164;48.818;2.322;2023-05-25T11:57:23;101397.81;;;21.99;23.38
22000;BME280;11164;48.818;2.322;2023-05-25T11:59:53;101404.03;;;20.99;23.76
22000;BME280;11164;48.818;2.322;2023-05-25T12:02:20;101397.09;;;21.25;24.14
22000;BME280;11164;48.818;2.322;2023-05-25T12:07:19;101391.19;;;21.95;23.33
22000;BME280;11164;48.818;2.322;2023-05-25T12:09:44;101399.44;;;21.95;23.72
22000;BME280;11164;48.818;2.322;2023-05-25T12:12:10;101388.59;;;21.10;24.46
22000;BME280;11164;48.818;2.322;2023-05-25T12:14:45;101385.44;;;21.01;23.57
22000;BME280;11164;48.818;2.322;2023-05-25T12:17:11;101385.66;;;21.72;23.57
22000;BME280;11164;48.818;2.322;2023-05-25T12:19:37;101370.34;;;22.48;23.23
22000;BME280;11164;48.818;2.322;2023-05-25T12:22:02;101383.47;;;22.68;22.91
22000;BME280;11164;48.818;2.322;2023-05-25T12:24:28;101400.72;;;22.91;23.04
22000;BME280;11164;48.818;2.322;2023-05-25T12:26:53;101393.94;;;23.03;22.63
22000;BME280;11164;48.818;2.322;2023-05-25T12:29:21;101380.22;;;22.49;23.27
22000;BME280;11164;48.818;2.322;2023-05-25T12:31:46;101389.56;;;23.45;22.45
22000;BME280;11164;48.818;2.322;2023-05-25T12:34:13;101400.63;;;24.13;21.94
22000;BME280;11164;48.818;2.322;2023-05-25T12:36:51;101398.19;;;24.22;20.81
22000;BME280;11164;48.818;2.322;2023-05-25T12:42:00;101381.47;;;24.60;21.96
22000;BME280;11164;48.818;2.322;2023-05-25T12:44:32;101378.41;;;25.23;21.02
22000;BME280;11164;48.818;2.322;2023-05-25T12:47:20;101377.59;;;24.91;19.73
22000;BME280;11164;48.818;2.322;2023-05-25T12:50:12;101384.69;;;23.20;21.32
22000;BME280;11164;48.818;2.322;2023-05-25T12:52:42;101394.59;;;23.16;22.60
22000;BME280;11164;48.818;2.322;2023-05-25T12:55:27;101386.97;;;23.81;20.89
22000;BME280;11164;48.818;2.322;2023-05-25T12:58:01;101375.69;;;24.56;21.55
22000;BME280;11164;48.818;2.322;2023-05-25T13:03:00;101393.50;;;24.33;22.50
22000;BME280;11164;48.818;2.322;2023-05-25T13:05:30;101385.34;;;24.84;22.13
22000;BME280;11164;48.818;2.322;2023-05-25T13:07:57;101380.91;;;24.99;21.79